Strona główna
METAR-TAF:

METAR-TAF

Lotnisko :

Bowman Field

Louisville, Kentucky, Stany Zjednoczone

Szerokość geograficzna: 38-13-40N, Długość geograficzna: 085-39-49W, wysokość: 166 m

Aktualna obserwacja pogody

Raport powstał 25 minut temu, godzina 07:53 UTC
Cisza
Temperatura 21°C
Wilgotność 88%
Ciśnienie 1013 hPa
Widzialność: 8.0 km
Mało chmury na wysokości 4600 ft
Mało chmury na wysokości 5500 ft
Zachmurzenie całkowite na wysokości 7000 ft
deszcz, zamglenie

METAR: KLOU 280753Z AUTO 00000KT 5SM RA BR FEW046 FEW055 OVC070 21/19 A2991 RMK AO2 SLP123 P0004 T02110194

czas: 04:18 (08:18 UTC)


TAF: brakujący

Obserwacja i prognoza pogody dla ponad 4000 lotnisk (raport METAR i TAF).

Dostępne stacje oznaczono żółtymi i czerwonymi punktami na mapie.

Najedź kursorem aby zobaczyć nazwę stacji.

Kliknij aby zobaczyć obserwacje i prognozy pogody.

Aby zmienić mapę: kliknij na zielony przycisk z czarnym krzyżykiem, aby powiększyć; na zielony przycisk z myślnikiem, aby pomniejszyć; na zielone strzałki, aby przejść do map sąsiednich.


METAR-TAF: